Overview Statistics Trail Chart Weather Telemetry Raw packets
 

This is the latest recevied weather packets stored in our database for station/object EA3CH. If no packets are shown the sender has not sent any weather packets the latest 10 day(s).

<< 20 21 22 23 24 25 26 >>
Time Temp. Humidity Pressure Rain* Wind** Luminosity Snow
1788156904 18.89° C 72% 1019.9 hPa 0 mm - 0 W/m² -
1788156004 18.89° C 71% 1019.7 hPa 0 mm - 0 W/m² -
1788155106 20° C 58% 1019.4 hPa 0 mm - 0 W/m² -
1788155104 18.89° C 70% 1019.7 hPa 0 mm - 0 W/m² -
1788154203 18.89° C 68% 1019.5 hPa 0 mm - 0 W/m² -
1788153304 19.44° C 67% 1019.3 hPa 0 mm - 0 W/m² -
1788152406 20° C 56% 1019.1 hPa 0 mm - 0 W/m² -
1788152403 18.89° C 67% 1019.3 hPa 0 mm - 0 W/m² -
1788151505 19.44° C 57% 1019.1 hPa 0 mm - 0 W/m² -
1788151504 18.33° C 68% 1019.3 hPa 0 mm - 0 W/m² -
1788150606 18.89° C 57% 1019.2 hPa 0 mm - 0 W/m² -
1788150604 18.33° C 68% 1019.4 hPa 0 mm - 0 W/m² -
1788149704 18.33° C 67% 1019.4 hPa 0 mm - 0 W/m² -
1788148803 18.33° C 68% 1019.3 hPa 0 mm - 0 W/m² -
1788147904 18.33° C 68% 1019.3 hPa 0 mm - 0 W/m² -
1788147004 18.33° C 69% 1019.3 hPa 0 mm - 0 W/m² -
1788146105 18.89° C 58% 1019.2 hPa 0 mm - 0 W/m² -
1788146103 17.78° C 71% 1019.3 hPa 0 mm - 0 W/m² -
1788145205 17.78° C 58% 1019.2 hPa 0 mm - 0 W/m² -
1788145204 16.67° C 70% 1019.3 hPa 0 mm - 0 W/m² -
1788144303 16.67° C 73% 1019.4 hPa 0 mm - 0 W/m² -
1788143404 16.67° C 74% 1019.2 hPa 0 mm - 0 W/m² -
1788142503 17.22° C 72% 1019.2 hPa 0 mm - 0 W/m² -
1788141604 16.67° C 71% 1019.2 hPa 0 mm - 0 W/m² -
1788140704 16.67° C 74% 1019.3 hPa 0 mm - 0 W/m² -

* Rain latest hour (hover to see other rain measurements)
** Current wind speed in m/s (hover to see current wind gust speed)